sensor_id;sensor_type;location;lat;lon;timestamp;temperature;humidity
4548;DHT22;2286;51.570;7.090;2023-05-07T00:02:18;13.90;99.90
4548;DHT22;2286;51.570;7.090;2023-05-07T00:04:45;13.90;99.90
4548;DHT22;2286;51.570;7.090;2023-05-07T00:07:11;13.90;99.90
4548;DHT22;2286;51.570;7.090;2023-05-07T00:09:38;14.00;99.90
4548;DHT22;2286;51.570;7.090;2023-05-07T00:12:05;14.00;99.90
4548;DHT22;2286;51.570;7.090;2023-05-07T00:14:32;14.00;99.90
4548;DHT22;2286;51.570;7.090;2023-05-07T00:16:59;14.00;99.90
4548;DHT22;2286;51.570;7.090;2023-05-07T00:19:27;14.00;99.90
4548;DHT22;2286;51.570;7.090;2023-05-07T00:21:54;14.00;99.90
4548;DHT22;2286;51.570;7.090;2023-05-07T00:24:21;14.00;99.90
4548;DHT22;2286;51.570;7.090;2023-05-07T00:26:48;14.00;99.90
4548;DHT22;2286;51.570;7.090;2023-05-07T00:29:14;14.00;99.90
4548;DHT22;2286;51.570;7.090;2023-05-07T00:31:41;13.90;99.90
4548;DHT22;2286;51.570;7.090;2023-05-07T00:34:08;13.90;99.90
4548;DHT22;2286;51.570;7.090;2023-05-07T00:36:36;13.90;99.90
4548;DHT22;2286;51.570;7.090;2023-05-07T00:39:03;13.90;99.90
4548;DHT22;2286;51.570;7.090;2023-05-07T00:41:30;14.00;99.90
4548;DHT22;2286;51.570;7.090;2023-05-07T00:43:57;13.90;99.90
4548;DHT22;2286;51.570;7.090;2023-05-07T00:46:24;13.90;99.90
4548;DHT22;2286;51.570;7.090;2023-05-07T00:48:51;13.90;99.90
4548;DHT22;2286;51.570;7.090;2023-05-07T00:51:18;13.90;99.90
4548;DHT22;2286;51.570;7.090;2023-05-07T00:53:47;13.90;99.90
4548;DHT22;2286;51.570;7.090;2023-05-07T00:56:13;13.80;99.90
4548;DHT22;2286;51.570;7.090;2023-05-07T00:58:41;13.80;99.90
4548;DHT22;2286;51.570;7.090;2023-05-07T01:01:08;13.80;99.90
4548;DHT22;2286;51.570;7.090;2023-05-07T01:03:35;13.80;99.90
4548;DHT22;2286;51.570;7.090;2023-05-07T01:06:03;13.70;99.90
4548;DHT22;2286;51.570;7.090;2023-05-07T01:08:30;13.70;99.90
4548;DHT22;2286;51.570;7.090;2023-05-07T01:10:59;13.70;99.90
4548;DHT22;2286;51.570;7.090;2023-05-07T01:13:27;13.80;99.90
4548;DHT22;2286;51.570;7.090;2023-05-07T01:15:54;13.80;99.90
4548;DHT22;2286;51.570;7.090;2023-05-07T01:18:21;13.80;99.90
4548;DHT22;2286;51.570;7.090;2023-05-07T01:20:48;13.80;99.90
4548;DHT22;2286;51.570;7.090;2023-05-07T01:23:17;13.80;99.90
4548;DHT22;2286;51.570;7.090;2023-05-07T01:25:51;13.80;99.90
4548;DHT22;2286;51.570;7.090;2023-05-07T01:28:18;13.80;99.90
4548;DHT22;2286;51.570;7.090;2023-05-07T01:30:46;13.80;99.90
4548;DHT22;2286;51.570;7.090;2023-05-07T01:33:17;13.80;99.90
4548;DHT22;2286;51.570;7.090;2023-05-07T01:35:48;13.80;99.90
4548;DHT22;2286;51.570;7.090;2023-05-07T01:38:18;13.80;99.90
4548;DHT22;2286;51.570;7.090;2023-05-07T01:40:45;13.80;99.90
4548;DHT22;2286;51.570;7.090;2023-05-07T01:43:12;13.80;99.90
4548;DHT22;2286;51.570;7.090;2023-05-07T01:45:40;13.80;99.90
4548;DHT22;2286;51.570;7.090;2023-05-07T01:48:07;13.80;99.90
4548;DHT22;2286;51.570;7.090;2023-05-07T01:50:35;13.70;99.90
4548;DHT22;2286;51.570;7.090;2023-05-07T01:53:03;13.70;99.90
4548;DHT22;2286;51.570;7.090;2023-05-07T01:55:31;13.70;99.90
4548;DHT22;2286;51.570;7.090;2023-05-07T01:57:58;13.70;99.90
4548;DHT22;2286;51.570;7.090;2023-05-07T02:00:25;13.70;99.90
4548;DHT22;2286;51.570;7.090;2023-05-07T02:02:52;13.80;99.90
4548;DHT22;2286;51.570;7.090;2023-05-07T02:05:19;13.70;99.90
4548;DHT22;2286;51.570;7.090;2023-05-07T02:07:46;13.80;99.90
4548;DHT22;2286;51.570;7.090;2023-05-07T02:10:13;13.80;99.90
4548;DHT22;2286;51.570;7.090;2023-05-07T02:12:41;13.80;99.90
4548;DHT22;2286;51.570;7.090;2023-05-07T02:15:08;13.80;99.90
4548;DHT22;2286;51.570;7.090;2023-05-07T02:17:40;13.80;99.90
4548;DHT22;2286;51.570;7.090;2023-05-07T02:20:24;13.80;99.90
4548;DHT22;2286;51.570;7.090;2023-05-07T02:22:51;13.70;99.90
4548;DHT22;2286;51.570;7.090;2023-05-07T02:25:18;13.80;99.90
4548;DHT22;2286;51.570;7.090;2023-05-07T02:27:46;13.70;99.90
4548;DHT22;2286;51.570;7.090;2023-05-07T02:30:13;13.70;99.90
4548;DHT22;2286;51.570;7.090;2023-05-07T02:32:40;13.70;99.90
4548;DHT22;2286;51.570;7.090;2023-05-07T02:35:07;13.70;99.90
4548;DHT22;2286;51.570;7.090;2023-05-07T02:37:34;13.70;99.90
4548;DHT22;2286;51.570;7.090;2023-05-07T02:40:01;13.70;99.90
4548;DHT22;2286;51.570;7.090;2023-05-07T02:42:29;13.60;99.90
4548;DHT22;2286;51.570;7.090;2023-05-07T02:44:58;13.60;99.90
4548;DHT22;2286;51.570;7.090;2023-05-07T02:47:25;13.60;99.90
4548;DHT22;2286;51.570;7.090;2023-05-07T02:49:54;13.60;99.90
4548;DHT22;2286;51.570;7.090;2023-05-07T02:52:21;13.60;99.90
4548;DHT22;2286;51.570;7.090;2023-05-07T02:54:48;13.60;99.90
4548;DHT22;2286;51.570;7.090;2023-05-07T02:57:15;13.60;99.90
4548;DHT22;2286;51.570;7.090;2023-05-07T02:59:42;13.60;99.90
4548;DHT22;2286;51.570;7.090;2023-05-07T03:02:10;13.50;99.90
4548;DHT22;2286;51.570;7.090;2023-05-07T03:04:38;13.50;99.90
4548;DHT22;2286;51.570;7.090;2023-05-07T03:07:05;13.50;99.90
4548;DHT22;2286;51.570;7.090;2023-05-07T03:09:32;13.40;99.90
4548;DHT22;2286;51.570;7.090;2023-05-07T03:11:59;13.40;99.90
4548;DHT22;2286;51.570;7.090;2023-05-07T03:14:27;13.40;99.90
4548;DHT22;2286;51.570;7.090;2023-05-07T03:16:54;13.40;99.90
4548;DHT22;2286;51.570;7.090;2023-05-07T03:19:22;13.40;99.90
4548;DHT22;2286;51.570;7.090;2023-05-07T03:21:49;13.40;99.90
4548;DHT22;2286;51.570;7.090;2023-05-07T03:24:16;13.40;99.90
4548;DHT22;2286;51.570;7.090;2023-05-07T03:26:43;13.40;99.90
4548;DHT22;2286;51.570;7.090;2023-05-07T03:29:10;13.40;99.90
4548;DHT22;2286;51.570;7.090;2023-05-07T03:31:37;13.30;99.90
4548;DHT22;2286;51.570;7.090;2023-05-07T03:34:04;13.30;99.90
4548;DHT22;2286;51.570;7.090;2023-05-07T03:36:32;13.30;99.90
4548;DHT22;2286;51.570;7.090;2023-05-07T03:38:59;13.30;99.90
4548;DHT22;2286;51.570;7.090;2023-05-07T03:41:26;13.30;99.90
4548;DHT22;2286;51.570;7.090;2023-05-07T03:43:55;13.30;99.90
4548;DHT22;2286;51.570;7.090;2023-05-07T03:46:22;13.30;99.90
4548;DHT22;2286;51.570;7.090;2023-05-07T03:48:51;13.30;99.90
4548;DHT22;2286;51.570;7.090;2023-05-07T03:51:18;13.30;99.90
4548;DHT22;2286;51.570;7.090;2023-05-07T03:53:46;13.30;99.90
4548;DHT22;2286;51.570;7.090;2023-05-07T03:56:13;13.30;99.90
4548;DHT22;2286;51.570;7.090;2023-05-07T03:58:40;13.30;99.90
4548;DHT22;2286;51.570;7.090;2023-05-07T04:01:07;13.20;99.90
4548;DHT22;2286;51.570;7.090;2023-05-07T04:03:35;13.30;99.90
4548;DHT22;2286;51.570;7.090;2023-05-07T04:06:02;13.30;99.90
4548;DHT22;2286;51.570;7.090;2023-05-07T04:08:29;13.30;99.90
4548;DHT22;2286;51.570;7.090;2023-05-07T04:10:58;13.30;99.90
4548;DHT22;2286;51.570;7.090;2023-05-07T04:13:25;13.30;99.90
4548;DHT22;2286;51.570;7.090;2023-05-07T04:15:52;13.30;99.90
4548;DHT22;2286;51.570;7.090;2023-05-07T04:18:19;13.30;99.90
4548;DHT22;2286;51.570;7.090;2023-05-07T04:20:47;13.30;99.90
4548;DHT22;2286;51.570;7.090;2023-05-07T04:23:14;13.30;99.90
4548;DHT22;2286;51.570;7.090;2023-05-07T04:25:41;13.30;99.90
4548;DHT22;2286;51.570;7.090;2023-05-07T04:28:10;13.30;99.90
4548;DHT22;2286;51.570;7.090;2023-05-07T04:30:37;13.30;99.90
4548;DHT22;2286;51.570;7.090;2023-05-07T04:33:04;13.30;99.90
4548;DHT22;2286;51.570;7.090;2023-05-07T04:35:32;13.30;99.90
4548;DHT22;2286;51.570;7.090;2023-05-07T04:37:59;13.30;99.90
4548;DHT22;2286;51.570;7.090;2023-05-07T04:40:27;13.40;99.90
4548;DHT22;2286;51.570;7.090;2023-05-07T04:42:54;13.40;99.90
4548;DHT22;2286;51.570;7.090;2023-05-07T04:45:22;13.40;99.90
4548;DHT22;2286;51.570;7.090;2023-05-07T04:47:49;13.50;99.90
4548;DHT22;2286;51.570;7.090;2023-05-07T04:50:16;13.50;99.90
4548;DHT22;2286;51.570;7.090;2023-05-07T04:52:44;13.60;99.90
4548;DHT22;2286;51.570;7.090;2023-05-07T04:55:12;13.60;99.90
4548;DHT22;2286;51.570;7.090;2023-05-07T04:57:38;13.70;99.90
4548;DHT22;2286;51.570;7.090;2023-05-07T05:00:08;13.70;99.90
4548;DHT22;2286;51.570;7.090;2023-05-07T05:02:37;13.80;99.90
4548;DHT22;2286;51.570;7.090;2023-05-07T05:05:04;13.80;99.90
4548;DHT22;2286;51.570;7.090;2023-05-07T05:07:31;13.80;99.90
4548;DHT22;2286;51.570;7.090;2023-05-07T05:09:58;13.80;99.90
4548;DHT22;2286;51.570;7.090;2023-05-07T05:12:25;13.80;99.90
4548;DHT22;2286;51.570;7.090;2023-05-07T05:14:52;13.80;99.90
4548;DHT22;2286;51.570;7.090;2023-05-07T05:17:19;13.70;99.90
4548;DHT22;2286;51.570;7.090;2023-05-07T05:19:47;13.80;99.90
4548;DHT22;2286;51.570;7.090;2023-05-07T05:22:15;13.70;99.90
4548;DHT22;2286;51.570;7.090;2023-05-07T05:24:42;13.70;99.90
4548;DHT22;2286;51.570;7.090;2023-05-07T05:27:09;13.70;99.90
4548;DHT22;2286;51.570;7.090;2023-05-07T05:29:36;13.70;99.90
4548;DHT22;2286;51.570;7.090;2023-05-07T05:32:03;13.80;99.90
4548;DHT22;2286;51.570;7.090;2023-05-07T05:34:29;13.80;99.90
4548;DHT22;2286;51.570;7.090;2023-05-07T05:37:00;13.80;99.90
4548;DHT22;2286;51.570;7.090;2023-05-07T05:39:27;13.90;99.90
4548;DHT22;2286;51.570;7.090;2023-05-07T05:41:54;13.90;99.90
4548;DHT22;2286;51.570;7.090;2023-05-07T05:44:21;14.00;99.90
4548;DHT22;2286;51.570;7.090;2023-05-07T05:46:47;14.00;99.90
4548;DHT22;2286;51.570;7.090;2023-05-07T05:49:15;14.10;99.90
4548;DHT22;2286;51.570;7.090;2023-05-07T05:51:42;14.20;99.90
4548;DHT22;2286;51.570;7.090;2023-05-07T05:54:10;14.30;99.90
4548;DHT22;2286;51.570;7.090;2023-05-07T05:56:37;14.40;99.90
4548;DHT22;2286;51.570;7.090;2023-05-07T05:59:04;14.50;99.90
4548;DHT22;2286;51.570;7.090;2023-05-07T06:01:31;14.60;99.90
4548;DHT22;2286;51.570;7.090;2023-05-07T06:03:58;14.60;99.90
4548;DHT22;2286;51.570;7.090;2023-05-07T06:06:25;14.70;99.90
4548;DHT22;2286;51.570;7.090;2023-05-07T06:08:52;14.80;99.90
4548;DHT22;2286;51.570;7.090;2023-05-07T06:11:21;15.00;99.90
4548;DHT22;2286;51.570;7.090;2023-05-07T06:13:48;15.10;99.90
4548;DHT22;2286;51.570;7.090;2023-05-07T06:16:15;15.20;99.90
4548;DHT22;2286;51.570;7.090;2023-05-07T06:18:42;15.30;99.90
4548;DHT22;2286;51.570;7.090;2023-05-07T06:21:10;15.50;99.90
4548;DHT22;2286;51.570;7.090;2023-05-07T06:23:36;15.60;99.90
4548;DHT22;2286;51.570;7.090;2023-05-07T06:26:03;15.70;99.90
4548;DHT22;2286;51.570;7.090;2023-05-07T06:28:32;15.90;99.90
4548;DHT22;2286;51.570;7.090;2023-05-07T06:31:11;16.10;99.90
4548;DHT22;2286;51.570;7.090;2023-05-07T06:33:39;16.20;99.90
4548;DHT22;2286;51.570;7.090;2023-05-07T06:36:06;16.40;99.90
4548;DHT22;2286;51.570;7.090;2023-05-07T06:38:33;16.40;99.90
4548;DHT22;2286;51.570;7.090;2023-05-07T06:41:00;16.40;99.90
4548;DHT22;2286;51.570;7.090;2023-05-07T06:43:27;16.50;99.90
4548;DHT22;2286;51.570;7.090;2023-05-07T06:45:55;16.60;99.90
4548;DHT22;2286;51.570;7.090;2023-05-07T06:48:22;16.60;99.90
4548;DHT22;2286;51.570;7.090;2023-05-07T06:50:49;16.60;99.90
4548;DHT22;2286;51.570;7.090;2023-05-07T06:53:16;16.60;99.90
4548;DHT22;2286;51.570;7.090;2023-05-07T06:55:43;16.70;46.80
4548;DHT22;2286;51.570;7.090;2023-05-07T06:58:10;16.80;1.00
4548;DHT22;2286;51.570;7.090;2023-05-07T07:00:37;16.80;1.00
4548;DHT22;2286;51.570;7.090;2023-05-07T07:03:05;16.90;1.00
4548;DHT22;2286;51.570;7.090;2023-05-07T07:05:32;17.10;1.00
4548;DHT22;2286;51.570;7.090;2023-05-07T07:07:59;17.20;99.90
4548;DHT22;2286;51.570;7.090;2023-05-07T07:10:26;17.30;53.60
4548;DHT22;2286;51.570;7.090;2023-05-07T07:12:53;17.30;99.90
4548;DHT22;2286;51.570;7.090;2023-05-07T07:15:20;17.40;1.00
4548;DHT22;2286;51.570;7.090;2023-05-07T07:17:48;17.50;99.90
4548;DHT22;2286;51.570;7.090;2023-05-07T07:20:16;17.60;99.90
4548;DHT22;2286;51.570;7.090;2023-05-07T07:22:43;17.60;1.00
4548;DHT22;2286;51.570;7.090;2023-05-07T07:25:10;17.60;1.00
4548;DHT22;2286;51.570;7.090;2023-05-07T07:27:37;17.60;99.90
4548;DHT22;2286;51.570;7.090;2023-05-07T07:30:06;17.60;99.90
4548;DHT22;2286;51.570;7.090;2023-05-07T07:32:34;17.60;1.00
4548;DHT22;2286;51.570;7.090;2023-05-07T07:35:01;17.80;1.00
4548;DHT22;2286;51.570;7.090;2023-05-07T07:37:29;17.80;73.10
4548;DHT22;2286;51.570;7.090;2023-05-07T07:39:56;17.90;1.00
4548;DHT22;2286;51.570;7.090;2023-05-07T07:42:23;17.90;6.30
4548;DHT22;2286;51.570;7.090;2023-05-07T07:44:50;17.90;99.90
4548;DHT22;2286;51.570;7.090;2023-05-07T07:47:17;18.00;60.30
4548;DHT22;2286;51.570;7.090;2023-05-07T07:49:44;18.30;96.80
4548;DHT22;2286;51.570;7.090;2023-05-07T07:52:11;18.40;1.00
4548;DHT22;2286;51.570;7.090;2023-05-07T07:54:39;18.50;99.90
4548;DHT22;2286;51.570;7.090;2023-05-07T07:57:06;18.70;52.00
4548;DHT22;2286;51.570;7.090;2023-05-07T07:59:33;18.90;1.00
4548;DHT22;2286;51.570;7.090;2023-05-07T08:02:00;18.90;91.50
4548;DHT22;2286;51.570;7.090;2023-05-07T08:04:27;19.00;99.90
4548;DHT22;2286;51.570;7.090;2023-05-07T08:06:54;19.00;99.90
4548;DHT22;2286;51.570;7.090;2023-05-07T08:09:21;19.10;1.00
4548;DHT22;2286;51.570;7.090;2023-05-07T08:11:49;18.90;1.00
4548;DHT22;2286;51.570;7.090;2023-05-07T08:14:16;19.00;99.90
4548;DHT22;2286;51.570;7.090;2023-05-07T08:16:43;19.00;99.90
4548;DHT22;2286;51.570;7.090;2023-05-07T08:19:10;19.20;99.90
4548;DHT22;2286;51.570;7.090;2023-05-07T08:21:39;19.30;1.00
4548;DHT22;2286;51.570;7.090;2023-05-07T08:24:06;19.70;1.00
4548;DHT22;2286;51.570;7.090;2023-05-07T08:26:33;19.70;3.70
4548;DHT22;2286;51.570;7.090;2023-05-07T08:29:02;19.80;37.80
4548;DHT22;2286;51.570;7.090;2023-05-07T08:31:29;19.80;47.00
4548;DHT22;2286;51.570;7.090;2023-05-07T08:33:57;19.90;1.00
4548;DHT22;2286;51.570;7.090;2023-05-07T08:36:25;20.00;1.00
4548;DHT22;2286;51.570;7.090;2023-05-07T08:38:52;20.00;1.00
4548;DHT22;2286;51.570;7.090;2023-05-07T08:41:19;20.00;99.90
4548;DHT22;2286;51.570;7.090;2023-05-07T08:43:48;20.10;1.00
4548;DHT22;2286;51.570;7.090;2023-05-07T08:46:18;20.10;99.90
4548;DHT22;2286;51.570;7.090;2023-05-07T08:48:48;20.00;99.90
4548;DHT22;2286;51.570;7.090;2023-05-07T08:51:16;20.10;99.90
4548;DHT22;2286;51.570;7.090;2023-05-07T08:53:44;20.00;99.90
4548;DHT22;2286;51.570;7.090;2023-05-07T08:56:14;20.00;99.90
4548;DHT22;2286;51.570;7.090;2023-05-07T08:58:41;20.00;99.90
4548;DHT22;2286;51.570;7.090;2023-05-07T09:01:10;20.10;99.90
4548;DHT22;2286;51.570;7.090;2023-05-07T09:03:41;20.20;99.90
4548;DHT22;2286;51.570;7.090;2023-05-07T09:06:10;20.40;1.00
4548;DHT22;2286;51.570;7.090;2023-05-07T09:08:37;20.60;1.00
4548;DHT22;2286;51.570;7.090;2023-05-07T09:11:04;20.80;1.00
4548;DHT22;2286;51.570;7.090;2023-05-07T09:13:31;21.00;99.90
4548;DHT22;2286;51.570;7.090;2023-05-07T09:15:58;20.90;99.90
4548;DHT22;2286;51.570;7.090;2023-05-07T09:18:26;21.00;99.90
4548;DHT22;2286;51.570;7.090;2023-05-07T09:20:55;21.10;99.90
4548;DHT22;2286;51.570;7.090;2023-05-07T09:23:21;21.40;99.90
4548;DHT22;2286;51.570;7.090;2023-05-07T09:25:48;21.70;1.00
4548;DHT22;2286;51.570;7.090;2023-05-07T09:28:15;21.80;1.00
4548;DHT22;2286;51.570;7.090;2023-05-07T09:30:42;22.00;1.00
4548;DHT22;2286;51.570;7.090;2023-05-07T09:33:09;22.20;1.00
4548;DHT22;2286;51.570;7.090;2023-05-07T09:35:37;22.50;1.00
4548;DHT22;2286;51.570;7.090;2023-05-07T09:38:06;22.60;99.90
4548;DHT22;2286;51.570;7.090;2023-05-07T09:40:34;22.70;99.90
4548;DHT22;2286;51.570;7.090;2023-05-07T09:43:09;22.90;99.90
4548;DHT22;2286;51.570;7.090;2023-05-07T09:45:37;23.20;99.90
4548;DHT22;2286;51.570;7.090;2023-05-07T09:48:05;23.60;99.90
4548;DHT22;2286;51.570;7.090;2023-05-07T09:50:36;23.70;99.90
4548;DHT22;2286;51.570;7.090;2023-05-07T09:53:04;24.00;99.90
4548;DHT22;2286;51.570;7.090;2023-05-07T09:55:32;24.30;99.90
4548;DHT22;2286;51.570;7.090;2023-05-07T09:58:00;24.70;99.90
4548;DHT22;2286;51.570;7.090;2023-05-07T10:00:29;24.90;99.90
4548;DHT22;2286;51.570;7.090;2023-05-07T10:02:57;25.10;99.90
4548;DHT22;2286;51.570;7.090;2023-05-07T10:05:25;25.00;99.90
4548;DHT22;2286;51.570;7.090;2023-05-07T10:07:53;25.00;99.90
4548;DHT22;2286;51.570;7.090;2023-05-07T10:10:21;25.30;99.90
4548;DHT22;2286;51.570;7.090;2023-05-07T10:12:50;25.30;99.90
4548;DHT22;2286;51.570;7.090;2023-05-07T10:15:18;25.30;99.90
4548;DHT22;2286;51.570;7.090;2023-05-07T10:17:45;25.60;99.90
4548;DHT22;2286;51.570;7.090;2023-05-07T10:20:12;25.80;99.90
4548;DHT22;2286;51.570;7.090;2023-05-07T10:22:41;26.10;99.90
4548;DHT22;2286;51.570;7.090;2023-05-07T10:25:14;26.70;99.90
4548;DHT22;2286;51.570;7.090;2023-05-07T10:27:43;27.50;99.90
4548;DHT22;2286;51.570;7.090;2023-05-07T10:30:19;28.20;99.90
4548;DHT22;2286;51.570;7.090;2023-05-07T10:32:50;28.50;99.90
4548;DHT22;2286;51.570;7.090;2023-05-07T10:35:20;28.80;99.90
4548;DHT22;2286;51.570;7.090;2023-05-07T10:37:48;28.80;99.90
4548;DHT22;2286;51.570;7.090;2023-05-07T10:40:16;29.30;99.90
4548;DHT22;2286;51.570;7.090;2023-05-07T10:42:55;29.80;99.90
4548;DHT22;2286;51.570;7.090;2023-05-07T10:45:24;30.30;99.90
4548;DHT22;2286;51.570;7.090;2023-05-07T10:48:09;30.50;99.90
4548;DHT22;2286;51.570;7.090;2023-05-07T10:50:37;31.00;99.90
4548;DHT22;2286;51.570;7.090;2023-05-07T10:53:23;31.60;99.90
4548;DHT22;2286;51.570;7.090;2023-05-07T10:58:40;32.50;99.90
4548;DHT22;2286;51.570;7.090;2023-05-07T11:01:09;32.10;99.90
4548;DHT22;2286;51.570;7.090;2023-05-07T11:04:13;32.60;99.90
4548;DHT22;2286;51.570;7.090;2023-05-07T11:06:40;32.50;99.90
4548;DHT22;2286;51.570;7.090;2023-05-07T11:09:07;32.80;99.90
4548;DHT22;2286;51.570;7.090;2023-05-07T11:11:47;33.10;99.90
4548;DHT22;2286;51.570;7.090;2023-05-07T11:14:43;33.20;99.90
4548;DHT22;2286;51.570;7.090;2023-05-07T11:17:11;32.90;99.90
4548;DHT22;2286;51.570;7.090;2023-05-07T11:19:48;33.60;99.90
4548;DHT22;2286;51.570;7.090;2023-05-07T11:22:37;34.00;99.90
4548;DHT22;2286;51.570;7.090;2023-05-07T11:25:06;34.30;99.90
4548;DHT22;2286;51.570;7.090;2023-05-07T11:27:34;34.50;99.90
4548;DHT22;2286;51.570;7.090;2023-05-07T11:30:00;34.80;99.90
4548;DHT22;2286;51.570;7.090;2023-05-07T11:32:30;35.00;99.90
4548;DHT22;2286;51.570;7.090;2023-05-07T11:34:59;34.60;99.90
4548;DHT22;2286;51.570;7.090;2023-05-07T11:37:27;34.50;99.90
4548;DHT22;2286;51.570;7.090;2023-05-07T11:40:03;34.00;99.90
4548;DHT22;2286;51.570;7.090;2023-05-07T11:42:32;33.10;99.90
4548;DHT22;2286;51.570;7.090;2023-05-07T11:45:00;33.10;99.90
4548;DHT22;2286;51.570;7.090;2023-05-07T11:47:31;33.10;99.90
4548;DHT22;2286;51.570;7.090;2023-05-07T11:50:03;32.90;99.90
4548;DHT22;2286;51.570;7.090;2023-05-07T11:52:31;32.50;99.90
4548;DHT22;2286;51.570;7.090;2023-05-07T11:54:59;32.50;99.90
4548;DHT22;2286;51.570;7.090;2023-05-07T11:57:27;33.00;99.90
4548;DHT22;2286;51.570;7.090;2023-05-07T11:59:54;33.10;99.90
4548;DHT22;2286;51.570;7.090;2023-05-07T12:02:21;33.30;99.90
4548;DHT22;2286;51.570;7.090;2023-05-07T12:04:49;33.40;99.90
4548;DHT22;2286;51.570;7.090;2023-05-07T12:07:16;34.50;99.90
4548;DHT22;2286;51.570;7.090;2023-05-07T12:09:44;34.90;99.90
4548;DHT22;2286;51.570;7.090;2023-05-07T12:12:11;35.40;99.90
4548;DHT22;2286;51.570;7.090;2023-05-07T12:14:41;35.50;99.90
4548;DHT22;2286;51.570;7.090;2023-05-07T12:17:09;36.10;99.90
4548;DHT22;2286;51.570;7.090;2023-05-07T12:19:39;36.60;99.90
4548;DHT22;2286;51.570;7.090;2023-05-07T12:22:08;36.60;99.90
4548;DHT22;2286;51.570;7.090;2023-05-07T12:24:44;35.70;99.90
4548;DHT22;2286;51.570;7.090;2023-05-07T12:27:11;35.50;99.90
4548;DHT22;2286;51.570;7.090;2023-05-07T12:29:38;35.60;99.90
4548;DHT22;2286;51.570;7.090;2023-05-07T12:32:06;35.80;99.90
4548;DHT22;2286;51.570;7.090;2023-05-07T12:34:39;35.30;99.90
4548;DHT22;2286;51.570;7.090;2023-05-07T12:37:07;33.80;99.90
4548;DHT22;2286;51.570;7.090;2023-05-07T12:39:34;33.30;99.90
4548;DHT22;2286;51.570;7.090;2023-05-07T12:42:01;33.00;99.90
4548;DHT22;2286;51.570;7.090;2023-05-07T12:44:30;32.90;99.90
4548;DHT22;2286;51.570;7.090;2023-05-07T12:46:57;32.20;99.90
4548;DHT22;2286;51.570;7.090;2023-05-07T12:49:25;31.30;99.90
4548;DHT22;2286;51.570;7.090;2023-05-07T12:51:53;30.70;99.90
4548;DHT22;2286;51.570;7.090;2023-05-07T12:54:31;30.10;99.90
4548;DHT22;2286;51.570;7.090;2023-05-07T12:57:02;29.30;99.90
4548;DHT22;2286;51.570;7.090;2023-05-07T12:59:34;28.80;99.90
4548;DHT22;2286;51.570;7.090;2023-05-07T13:02:01;28.50;99.90
4548;DHT22;2286;51.570;7.090;2023-05-07T13:04:28;28.30;99.90
4548;DHT22;2286;51.570;7.090;2023-05-07T13:06:55;28.20;99.90
4548;DHT22;2286;51.570;7.090;2023-05-07T13:09:22;27.80;99.90
4548;DHT22;2286;51.570;7.090;2023-05-07T13:11:50;27.50;99.90
4548;DHT22;2286;51.570;7.090;2023-05-07T13:14:17;27.20;99.90
4548;DHT22;2286;51.570;7.090;2023-05-07T13:16:46;26.90;99.90
4548;DHT22;2286;51.570;7.090;2023-05-07T13:19:13;26.80;99.90
4548;DHT22;2286;51.570;7.090;2023-05-07T13:21:40;26.30;99.90
4548;DHT22;2286;51.570;7.090;2023-05-07T13:24:07;26.20;99.90
4548;DHT22;2286;51.570;7.090;2023-05-07T13:26:35;25.80;99.90
4548;DHT22;2286;51.570;7.090;2023-05-07T13:29:03;25.50;99.90
4548;DHT22;2286;51.570;7.090;2023-05-07T13:31:30;25.10;99.90
4548;DHT22;2286;51.570;7.090;2023-05-07T13:33:57;24.60;99.90
4548;DHT22;2286;51.570;7.090;2023-05-07T13:36:24;24.50;99.90
4548;DHT22;2286;51.570;7.090;2023-05-07T13:38:51;24.40;99.90
4548;DHT22;2286;51.570;7.090;2023-05-07T13:41:18;24.40;99.90
4548;DHT22;2286;51.570;7.090;2023-05-07T13:43:45;24.10;99.90
4548;DHT22;2286;51.570;7.090;2023-05-07T13:46:13;24.00;99.90
4548;DHT22;2286;51.570;7.090;2023-05-07T13:48:40;23.80;99.90
4548;DHT22;2286;51.570;7.090;2023-05-07T13:51:07;23.60;99.90
4548;DHT22;2286;51.570;7.090;2023-05-07T13:53:34;23.30;99.90
4548;DHT22;2286;51.570;7.090;2023-05-07T13:56:02;23.10;99.90
4548;DHT22;2286;51.570;7.090;2023-05-07T13:58:30;23.00;99.90
4548;DHT22;2286;51.570;7.090;2023-05-07T14:00:56;22.80;99.90
4548;DHT22;2286;51.570;7.090;2023-05-07T14:03:25;22.70;99.90
4548;DHT22;2286;51.570;7.090;2023-05-07T14:05:52;22.50;99.90
4548;DHT22;2286;51.570;7.090;2023-05-07T14:08:19;22.40;99.90
4548;DHT22;2286;51.570;7.090;2023-05-07T14:10:46;22.40;99.90
4548;DHT22;2286;51.570;7.090;2023-05-07T14:13:13;22.40;99.90
4548;DHT22;2286;51.570;7.090;2023-05-07T14:15:40;22.30;99.90
4548;DHT22;2286;51.570;7.090;2023-05-07T14:18:11;22.30;99.90
4548;DHT22;2286;51.570;7.090;2023-05-07T14:20:40;22.20;99.90
4548;DHT22;2286;51.570;7.090;2023-05-07T14:23:08;22.10;99.90
4548;DHT22;2286;51.570;7.090;2023-05-07T14:25:35;22.10;99.90
4548;DHT22;2286;51.570;7.090;2023-05-07T14:28:02;22.10;99.90
4548;DHT22;2286;51.570;7.090;2023-05-07T14:30:29;22.10;99.90
4548;DHT22;2286;51.570;7.090;2023-05-07T14:32:56;22.10;99.90
4548;DHT22;2286;51.570;7.090;2023-05-07T14:35:23;22.00;1.00
4548;DHT22;2286;51.570;7.090;2023-05-07T14:37:51;21.90;1.00
4548;DHT22;2286;51.570;7.090;2023-05-07T14:40:18;21.60;1.00
4548;DHT22;2286;51.570;7.090;2023-05-07T14:42:45;21.60;99.90
4548;DHT22;2286;51.570;7.090;2023-05-07T14:45:12;21.40;99.90
4548;DHT22;2286;51.570;7.090;2023-05-07T14:47:39;21.20;1.00
4548;DHT22;2286;51.570;7.090;2023-05-07T14:50:06;21.00;99.90
4548;DHT22;2286;51.570;7.090;2023-05-07T14:52:33;20.90;1.00
4548;DHT22;2286;51.570;7.090;2023-05-07T14:55:01;20.90;99.90
4548;DHT22;2286;51.570;7.090;2023-05-07T14:57:28;20.80;1.00
4548;DHT22;2286;51.570;7.090;2023-05-07T14:59:55;20.70;99.90
4548;DHT22;2286;51.570;7.090;2023-05-07T15:02:22;20.60;1.00
4548;DHT22;2286;51.570;7.090;2023-05-07T15:04:49;20.60;1.00
4548;DHT22;2286;51.570;7.090;2023-05-07T15:07:16;20.40;75.80
4548;DHT22;2286;51.570;7.090;2023-05-07T15:09:43;20.40;94.80
4548;DHT22;2286;51.570;7.090;2023-05-07T15:12:12;20.40;1.00
4548;DHT22;2286;51.570;7.090;2023-05-07T15:14:41;20.50;99.90
4548;DHT22;2286;51.570;7.090;2023-05-07T15:17:08;20.30;1.00
4548;DHT22;2286;51.570;7.090;2023-05-07T15:19:35;20.30;1.00
4548;DHT22;2286;51.570;7.090;2023-05-07T15:22:02;20.30;99.90
4548;DHT22;2286;51.570;7.090;2023-05-07T15:24:29;20.20;1.00
4548;DHT22;2286;51.570;7.090;2023-05-07T15:26:56;20.30;1.00
4548;DHT22;2286;51.570;7.090;2023-05-07T15:29:25;20.40;1.00
4548;DHT22;2286;51.570;7.090;2023-05-07T15:31:52;20.50;99.90
4548;DHT22;2286;51.570;7.090;2023-05-07T15:34:18;20.70;99.90
4548;DHT22;2286;51.570;7.090;2023-05-07T15:36:45;20.80;99.90
4548;DHT22;2286;51.570;7.090;2023-05-07T15:39:12;20.90;1.00
4548;DHT22;2286;51.570;7.090;2023-05-07T15:41:39;21.10;1.00
4548;DHT22;2286;51.570;7.090;2023-05-07T15:44:06;21.30;1.00
4548;DHT22;2286;51.570;7.090;2023-05-07T15:46:34;21.50;99.90
4548;DHT22;2286;51.570;7.090;2023-05-07T15:49:02;21.50;23.80
4548;DHT22;2286;51.570;7.090;2023-05-07T15:51:30;21.60;1.00
4548;DHT22;2286;51.570;7.090;2023-05-07T15:53:57;21.60;1.00
4548;DHT22;2286;51.570;7.090;2023-05-07T15:56:24;21.60;99.90
4548;DHT22;2286;51.570;7.090;2023-05-07T15:58:51;21.60;1.00
4548;DHT22;2286;51.570;7.090;2023-05-07T16:01:19;21.70;99.90
4548;DHT22;2286;51.570;7.090;2023-05-07T16:03:47;21.80;1.00
4548;DHT22;2286;51.570;7.090;2023-05-07T16:06:14;21.90;99.90
4548;DHT22;2286;51.570;7.090;2023-05-07T16:08:41;22.10;99.90
4548;DHT22;2286;51.570;7.090;2023-05-07T16:11:08;22.10;1.00
4548;DHT22;2286;51.570;7.090;2023-05-07T16:13:35;22.20;99.90